Time;durP1;ratioP1;P1;durP2;ratioP2;P2;SDS_P1;SDS_P2;PMS_P1;PMS_P2;Temp;Humidity;BMP_temperature;BMP_pressure;BME280_temperature;BME280_humidity;BME280_pressure;Samples;Min_cycle;Max_cycle;Signal;HPM_P1;HPM_P2
2020/12/13 00:00:49;;;;;;;44.37;25.13;;;3.80;99.90;;;;;;5095731;28;20032;-62
2020/12/13 00:03:14;;;;;;;40.10;24.47;;;3.70;99.90;;;;;;5095157;28;20028;-62
2020/12/13 00:05:40;;;;;;;41.07;24.80;;;3.60;99.90;;;;;;5095322;28;20028;-62
2020/12/13 00:08:06;;;;;;;45.77;26.53;;;3.60;99.90;;;;;;5095445;28;20085;-62
2020/12/13 00:10:32;;;;;;;43.03;25.83;;;3.60;99.90;;;;;;5095461;28;20221;-62
2020/12/13 00:12:58;;;;;;;37.30;21.97;;;3.60;99.90;;;;;;5095602;28;20501;-61
2020/12/13 00:15:24;;;;;;;35.33;19.63;;;3.60;99.90;;;;;;5077523;28;20509;-61
2020/12/13 00:17:51;;;;;;;35.03;17.63;;;3.60;99.90;;;;;;5096006;28;20055;-61
2020/12/13 00:20:17;;;;;;;25.90;17.10;;;3.70;99.90;;;;;;5095116;28;20028;-61
2020/12/13 00:22:43;;;;;;;26.23;12.30;;;3.80;99.90;;;;;;5096048;28;20034;-61
2020/12/13 00:25:09;;;;;;;18.40;11.40;;;3.70;99.90;;;;;;5077470;28;20338;-61
2020/12/13 00:27:34;;;;;;;22.50;11.10;;;3.80;99.90;;;;;;5094902;28;20054;-61
2020/12/13 00:30:00;;;;;;;16.67;9.70;;;3.80;99.90;;;;;;5095344;28;20028;-61
2020/12/13 00:32:29;;;;;;;19.13;10.43;;;3.90;99.90;;;;;;5095115;28;20052;-61
2020/12/13 00:34:56;;;;;;;20.13;9.97;;;3.90;99.90;;;;;;5095638;28;20276;-61
2020/12/13 00:37:22;;;;;;;14.33;8.20;;;3.90;99.90;;;;;;5095367;28;20204;-61
2020/12/13 00:39:48;;;;;;;17.97;8.90;;;3.90;99.90;;;;;;5098312;28;20028;-61
2020/12/13 00:42:13;;;;;;;15.23;7.93;;;3.90;99.90;;;;;;5099114;28;20039;-61
2020/12/13 00:44:39;;;;;;;19.87;8.03;;;4.00;99.90;;;;;;5099046;28;20028;-61
2020/12/13 00:47:05;;;;;;;15.37;7.37;;;4.10;99.90;;;;;;5081035;28;20043;-61
2020/12/13 00:49:30;;;;;;;15.67;7.13;;;4.30;99.90;;;;;;5098786;28;20036;-61
2020/12/13 00:52:06;;;;;;;17.90;6.93;;;4.30;99.90;;;;;;5080821;28;20040;-61
2020/12/13 00:54:32;;;;;;;14.40;7.33;;;4.30;99.90;;;;;;5097417;28;20126;-61
2020/12/13 00:56:58;;;;;;;15.27;6.63;;;4.20;99.90;;;;;;5079014;28;20031;-61
2020/12/13 00:59:23;;;;;;;14.27;6.07;;;4.20;99.90;;;;;;5098459;28;20020;-61
2020/12/13 01:01:49;;;;;;;15.27;5.97;;;4.20;99.90;;;;;;5098651;28;20036;-61
2020/12/13 01:04:15;;;;;;;22.40;7.10;;;4.20;99.90;;;;;;5099070;28;20055;-61
2020/12/13 01:06:41;;;;;;;14.17;5.83;;;4.30;99.90;;;;;;5098368;28;20122;-61
2020/12/13 01:09:06;;;;;;;13.27;6.17;;;4.30;99.90;;;;;;5098813;28;20032;-61
2020/12/13 01:11:33;;;;;;;15.17;5.37;;;4.30;99.90;;;;;;5097693;28;20042;-61
2020/12/13 01:14:01;;;;;;;14.90;4.47;;;4.30;99.90;;;;;;5098213;28;20028;-61
2020/12/13 01:16:27;;;;;;;10.63;5.10;;;4.40;99.90;;;;;;5080152;28;20024;-61
2020/12/13 01:18:53;;;;;;;12.17;5.67;;;4.30;99.90;;;;;;5098043;28;20032;-61
2020/12/13 01:21:25;;;;;;;12.30;6.37;;;4.20;99.90;;;;;;5098282;28;20042;-61
2020/12/13 01:23:51;;;;;;;15.70;7.37;;;4.10;99.90;;;;;;5109840;28;20035;-61
2020/12/13 01:26:18;;;;;;;17.57;9.63;;;4.10;99.90;;;;;;5080194;28;20051;-61
2020/12/13 01:28:45;;;;;;;20.53;10.23;;;4.10;99.90;;;;;;5079970;28;20035;-61
2020/12/13 01:31:18;;;;;;;11.43;6.40;;;4.10;99.90;;;;;;5097699;28;20360;-61
2020/12/13 01:33:48;;;;;;;13.00;7.40;;;4.20;99.90;;;;;;5098152;28;20043;-61
2020/12/13 01:36:15;;;;;;;18.90;7.93;;;4.10;99.90;;;;;;5098558;28;20040;-61
2020/12/13 01:38:41;;;;;;;14.43;5.77;;;4.20;99.90;;;;;;5097589;28;20024;-61
2020/12/13 01:41:07;;;;;;;10.60;6.23;;;4.30;99.90;;;;;;5098050;28;20024;-61
2020/12/13 01:43:34;;;;;;;10.33;5.43;;;4.30;99.90;;;;;;5097876;28;20338;-61
2020/12/13 01:46:00;;;;;;;12.63;6.43;;;4.30;99.90;;;;;;5097650;28;20024;-61
2020/12/13 01:48:27;;;;;;;13.07;5.30;;;4.30;99.90;;;;;;5097865;28;20042;-61
2020/12/13 01:51:08;;;;;;;11.97;5.67;;;4.40;99.90;;;;;;5097061;28;20028;-61
2020/12/13 01:53:36;;;;;;;15.73;5.03;;;4.40;99.90;;;;;;5097702;28;20032;-61
2020/12/13 01:56:03;;;;;;;20.03;5.43;;;4.40;99.90;;;;;;5097411;28;20030;-61
2020/12/13 01:58:36;;;;;;;10.73;4.83;;;4.50;99.90;;;;;;5098271;28;20081;-61
2020/12/13 02:01:04;;;;;;;13.27;4.80;;;4.40;99.90;;;;;;5097576;28;20035;-61
2020/12/13 02:03:37;;;;;;;13.63;5.27;;;4.50;99.90;;;;;;5097489;28;20077;-61
2020/12/13 02:06:10;;;;;;;12.85;4.78;;;4.60;99.90;;;;;;5097131;28;20081;-61
2020/12/13 02:08:39;;;;;;;13.53;5.07;;;4.50;99.90;;;;;;5097561;28;20485;-61
2020/12/13 02:11:06;;;;;;;11.03;4.50;;;4.60;99.90;;;;;;5096981;28;20030;-61
2020/12/13 02:13:31;;;;;;;12.03;5.23;;;4.60;99.90;;;;;;5097392;28;20020;-61
2020/12/13 02:15:59;;;;;;;11.23;6.43;;;4.60;99.90;;;;;;5097122;28;20483;-61
2020/12/13 02:18:26;;;;;;;13.00;5.83;;;4.60;99.90;;;;;;5103134;28;20039;-61
2020/12/13 02:20:52;;;;;;;18.87;6.03;;;4.60;99.90;;;;;;5099111;28;20046;-61
2020/12/13 02:23:18;;;;;;;11.87;5.03;;;4.60;99.90;;;;;;5103967;28;20470;-61
2020/12/13 02:25:43;;;;;;;11.00;4.50;;;4.70;99.90;;;;;;5097243;28;20027;-61
2020/12/13 02:28:09;;;;;;;11.90;4.47;;;4.60;99.90;;;;;;5096718;28;20024;-61
2020/12/13 02:30:35;;;;;;;12.23;4.20;;;4.60;99.90;;;;;;5097005;28;20342;-61
2020/12/13 02:33:00;;;;;;;11.23;5.63;;;4.60;99.90;;;;;;5096309;28;20056;-61
2020/12/13 02:35:26;;;;;;;15.73;5.00;;;4.60;99.90;;;;;;5097137;28;20028;-61
2020/12/13 02:37:52;;;;;;;11.50;4.30;;;4.70;99.90;;;;;;5096754;28;20055;-61
2020/12/13 02:40:17;;;;;;;9.33;4.03;;;4.70;99.90;;;;;;5096586;28;20024;-61
2020/12/13 02:42:43;;;;;;;11.03;4.80;;;4.70;99.90;;;;;;5096842;28;20090;-61
2020/12/13 02:45:09;;;;;;;14.33;5.07;;;4.70;99.90;;;;;;5096376;28;20028;-62
2020/12/13 02:47:35;;;;;;;13.43;4.67;;;4.70;99.90;;;;;;5096880;28;20115;-61
2020/12/13 02:50:00;;;;;;;12.93;4.23;;;4.70;99.90;;;;;;5096565;28;20028;-61
2020/12/13 02:52:26;;;;;;;12.37;4.40;;;4.70;99.90;;;;;;5096218;28;20403;-61
2020/12/13 02:54:53;;;;;;;10.10;5.70;;;4.80;99.90;;;;;;5079395;28;20020;-61
2020/12/13 02:57:20;;;;;;;10.27;4.60;;;4.80;99.90;;;;;;5096673;28;20111;-62
2020/12/13 02:59:45;;;;;;;9.97;4.80;;;4.80;99.90;;;;;;5078295;28;20020;-61
2020/12/13 03:02:11;;;;;;;12.63;5.17;;;5.00;99.90;;;;;;5095394;28;20024;-61
2020/12/13 03:04:37;;;;;;;13.03;4.37;;;4.90;99.90;;;;;;5096300;28;20349;-61
2020/12/13 03:07:02;;;;;;;11.00;4.10;;;4.90;99.90;;;;;;5096102;28;20028;-61
2020/12/13 03:09:28;;;;;;;10.87;3.93;;;4.90;99.90;;;;;;5095684;28;20387;-61
2020/12/13 03:11:54;;;;;;;12.13;4.23;;;4.90;99.90;;;;;;5095935;28;20023;-61
2020/12/13 03:14:19;;;;;;;11.50;3.60;;;4.90;99.90;;;;;;5096019;28;20034;-61
2020/12/13 03:16:45;;;;;;;7.53;3.10;;;5.00;99.90;;;;;;5096678;28;20101;-61
2020/12/13 03:19:11;;;;;;;7.13;3.00;;;5.10;99.90;;;;;;5077439;28;20028;-61
2020/12/13 03:21:36;;;;;;;6.30;2.90;;;5.20;99.90;;;;;;5096403;28;20028;-61
2020/12/13 03:24:02;;;;;;;13.07;3.83;;;5.10;99.90;;;;;;5101464;28;20024;-61
2020/12/13 03:26:28;;;;;;;9.57;3.13;;;5.10;99.90;;;;;;5095903;28;20059;-61
2020/12/13 03:28:53;;;;;;;11.03;5.17;;;5.00;99.90;;;;;;5101654;28;20066;-61
2020/12/13 03:31:19;;;;;;;11.17;3.03;;;5.00;99.90;;;;;;5094975;28;20032;-61
2020/12/13 03:33:46;;;;;;;15.10;4.73;;;5.00;99.90;;;;;;5095877;28;20056;-61
2020/12/13 03:36:12;;;;;;;14.20;4.47;;;5.00;99.90;;;;;;5095727;28;20499;-61
2020/12/13 03:38:38;;;;;;;10.90;4.27;;;5.00;99.90;;;;;;5096160;28;20016;-61
2020/12/13 03:41:03;;;;;;;8.03;3.03;;;5.10;99.90;;;;;;5095719;28;20028;-61
2020/12/13 03:43:29;;;;;;;8.80;3.50;;;5.20;99.90;;;;;;5095445;28;20028;-61
2020/12/13 03:45:55;;;;;;;10.50;3.30;;;5.20;99.90;;;;;;5096435;28;20061;-61
2020/12/13 03:48:20;;;;;;;11.40;4.00;;;5.20;99.90;;;;;;5095570;28;20020;-61
2020/12/13 03:50:46;;;;;;;13.20;3.33;;;5.20;99.90;;;;;;5095776;28;20441;-61
2020/12/13 03:53:13;;;;;;;14.67;4.03;;;5.30;99.90;;;;;;5095519;28;20027;-61
2020/12/13 03:55:41;;;;;;;11.63;3.37;;;5.30;99.90;;;;;;5078077;28;20173;-61
2020/12/13 03:58:07;;;;;;;8.77;3.07;;;5.20;99.90;;;;;;5095949;28;20106;-61
2020/12/13 04:00:34;;;;;;;10.80;3.60;;;5.30;99.90;;;;;;5095310;28;20114;-61
2020/12/13 04:03:04;;;;;;;10.37;3.23;;;5.30;99.90;;;;;;5096268;28;20430;-61
2020/12/13 04:05:30;;;;;;;8.40;2.60;;;5.40;99.90;;;;;;5095411;28;20024;-61
2020/12/13 04:07:56;;;;;;;9.20;3.10;;;5.40;99.90;;;;;;5096041;28;20445;-61
2020/12/13 04:10:23;;;;;;;7.27;2.23;;;5.40;99.90;;;;;;5094986;28;20036;-61
2020/12/13 04:12:48;;;;;;;8.27;3.77;;;5.40;99.90;;;;;;5095531;28;20334;-61
2020/12/13 04:15:14;;;;;;;10.93;3.73;;;5.40;99.90;;;;;;5097762;28;20024;-61
2020/12/13 04:17:40;;;;;;;10.67;3.57;;;5.40;99.90;;;;;;5099662;28;20311;-61
2020/12/13 04:20:07;;;;;;;8.73;3.40;;;5.30;99.90;;;;;;5099052;28;20020;-61
2020/12/13 04:22:33;;;;;;;8.90;3.23;;;5.40;99.90;;;;;;5102067;28;20425;-61
2020/12/13 04:24:58;;;;;;;11.50;2.93;;;5.40;99.90;;;;;;5099502;28;20034;-61
2020/12/13 04:27:25;;;;;;;13.93;3.73;;;5.50;99.90;;;;;;5080905;28;20433;-61
2020/12/13 04:29:51;;;;;;;7.10;3.77;;;5.40;99.90;;;;;;5099738;28;20024;-61
2020/12/13 04:32:17;;;;;;;9.50;3.13;;;5.40;99.90;;;;;;5099157;28;20036;-61
2020/12/13 04:34:42;;;;;;;19.63;3.83;;;5.40;99.90;;;;;;5099201;28;20491;-61
2020/12/13 04:37:09;;;;;;;8.40;3.27;;;5.30;99.90;;;;;;5099671;28;20024;-61
2020/12/13 04:39:35;;;;;;;10.17;2.37;;;5.30;99.90;;;;;;5098592;28;20020;-61
2020/12/13 04:42:01;;;;;;;11.83;2.50;;;5.50;99.90;;;;;;5099330;28;20024;-61
2020/12/13 04:44:29;;;;;;;4.90;2.43;;;5.50;99.90;;;;;;5098758;28;20501;-61
2020/12/13 04:46:55;;;;;;;10.13;3.40;;;5.50;99.90;;;;;;5099084;28;20368;-61
2020/12/13 04:49:24;;;;;;;8.33;2.77;;;5.60;99.90;;;;;;5098729;28;20058;-61
2020/12/13 04:51:51;;;;;;;8.70;2.43;;;5.60;99.90;;;;;;5099123;28;20031;-61
2020/12/13 04:54:21;;;;;;;11.53;3.37;;;5.60;99.90;;;;;;5099071;28;20491;-61
2020/12/13 04:56:51;;;;;;;8.93;3.00;;;5.60;99.90;;;;;;5098874;28;20015;-61
2020/12/13 04:59:17;;;;;;;7.87;2.37;;;5.70;99.90;;;;;;5098745;28;20024;-61
2020/12/13 05:01:47;;;;;;;10.67;2.77;;;5.60;99.90;;;;;;5098513;28;20500;-62
2020/12/13 05:04:14;;;;;;;13.23;3.40;;;5.70;99.90;;;;;;5098745;28;20028;-61
2020/12/13 05:06:41;;;;;;;7.67;2.13;;;5.70;99.90;;;;;;5098334;28;20433;-61
2020/12/13 05:09:11;;;;;;;10.83;4.33;;;5.80;99.90;;;;;;5098482;28;20031;-61
2020/12/13 05:11:42;;;;;;;7.93;2.83;;;5.80;99.90;;;;;;5098489;28;20028;-61
2020/12/13 05:14:07;;;;;;;8.63;2.30;;;5.80;99.90;;;;;;5098565;28;20069;-61
2020/12/13 05:16:33;;;;;;;9.30;4.43;;;5.90;99.90;;;;;;5098398;28;20028;-61
2020/12/13 05:18:59;;;;;;;10.40;2.33;;;5.90;99.90;;;;;;5097810;28;20442;-61
2020/12/13 05:21:26;;;;;;;12.03;3.70;;;5.90;99.90;;;;;;5098702;28;20039;-61
2020/12/13 05:23:53;;;;;;;8.67;2.80;;;5.90;99.90;;;;;;5111373;28;20338;-61
2020/12/13 05:26:20;;;;;;;11.20;2.77;;;6.00;99.90;;;;;;5098181;28;20024;-62
2020/12/13 05:28:49;;;;;;;10.53;2.50;;;6.00;99.90;;;;;;5098252;28;20038;-61
2020/12/13 05:31:23;;;;;;;10.73;2.77;;;6.00;99.90;;;;;;5097927;28;20170;-61
2020/12/13 05:33:55;;;;;;;10.13;2.70;;;6.00;99.90;;;;;;5097642;28;20165;-62
2020/12/13 05:36:21;;;;;;;7.50;3.30;;;6.20;99.90;;;;;;5064442;28;20039;-61
2020/12/13 05:38:47;;;;;;;10.17;2.63;;;6.20;99.90;;;;;;5098018;28;20028;-61
2020/12/13 05:41:15;;;;;;;12.10;3.47;;;6.20;99.90;;;;;;5098277;28;20024;-61
2020/12/13 05:45:02;;;;;;;8.70;2.97;;;6.20;99.90;;;;;;5097956;28;20028;-61
2020/12/13 05:47:02;;;;;;;10.00;2.10;;;6.20;99.90;;;;;;5084211;28;20036;-61
2020/12/13 05:52:11;;;;;;;15.53;3.40;;;6.30;99.90;;;;;;5097812;28;20027;-61
2020/12/13 05:54:37;;;;;;;11.53;2.97;;;6.20;99.90;;;;;;5079480;28;20025;-61
2020/12/13 05:57:03;;;;;;;11.70;2.50;;;6.20;99.90;;;;;;5097757;28;20076;-61
2020/12/13 05:59:31;;;;;;;10.23;2.70;;;6.20;99.90;;;;;;5097721;28;20061;-61
2020/12/13 06:01:58;;;;;;;8.37;2.80;;;6.20;99.90;;;;;;5097854;28;20111;-61
2020/12/13 06:04:29;;;;;;;9.10;2.03;;;6.20;99.90;;;;;;5097624;28;20051;-61
2020/12/13 06:06:57;;;;;;;8.97;3.03;;;6.20;99.90;;;;;;5097545;28;20023;-61
2020/12/13 06:09:31;;;;;;;11.30;2.00;;;6.20;99.90;;;;;;5097556;28;20497;-61
2020/12/13 06:12:03;;;;;;;10.80;3.33;;;6.20;99.90;;;;;;5104524;28;20437;-61
2020/12/13 06:14:29;;;;;;;8.15;2.55;;;6.20;99.90;;;;;;5117462;28;20118;-61
2020/12/13 06:16:57;;;;;;;10.87;2.40;;;6.30;99.90;;;;;;5099382;28;20110;-61
2020/12/13 06:19:28;;;;;;;10.27;2.07;;;6.30;99.90;;;;;;5117533;28;20015;-61
2020/12/13 06:22:01;;;;;;;11.20;3.30;;;6.30;99.90;;;;;;5115866;28;20029;-61
2020/12/13 06:24:27;;;;;;;5.13;1.80;;;6.30;99.90;;;;;;5097525;28;20086;-61
2020/12/13 06:26:54;;;;;;;5.20;1.90;;;6.30;99.90;;;;;;5097055;28;20414;-61
2020/12/13 06:29:22;;;;;;;6.10;1.97;;;6.20;99.90;;;;;;5097228;28;20024;-62
2020/12/13 06:31:50;;;;;;;8.63;2.70;;;6.20;99.90;;;;;;5096392;28;20036;-61
2020/12/13 06:34:16;;;;;;;9.53;2.00;;;6.20;99.90;;;;;;5079528;28;20059;-61
2020/12/13 06:36:42;;;;;;;8.30;2.20;;;6.20;99.90;;;;;;5095798;28;20107;-61
2020/12/13 06:39:14;;;;;;;8.27;3.70;;;6.20;99.90;;;;;;5096839;28;20031;-61
2020/12/13 06:41:47;;;;;;;6.73;2.60;;;6.20;99.90;;;;;;5096890;28;20380;-61
2020/12/13 06:44:13;;;;;;;6.47;3.20;;;6.20;99.90;;;;;;5103266;28;20055;-61
2020/12/13 06:46:41;;;;;;;8.47;1.97;;;6.30;99.90;;;;;;5117387;28;20031;-61
2020/12/13 06:49:09;;;;;;;8.20;2.40;;;6.30;99.90;;;;;;5117157;28;20027;-61
2020/12/13 06:51:37;;;;;;;10.73;3.10;;;6.30;99.90;;;;;;5117582;28;20111;-61
2020/12/13 06:54:08;;;;;;;8.20;2.37;;;6.40;99.90;;;;;;5117681;28;20050;-61
2020/12/13 06:56:34;;;;;;;8.50;2.10;;;6.40;99.90;;;;;;5099442;28;20024;-62
2020/12/13 06:59:04;;;;;;;8.70;3.10;;;6.50;99.90;;;;;;5117066;28;20028;-61
2020/12/13 07:01:41;;;;;;;10.00;3.10;;;6.50;99.90;;;;;;5117184;28;20032;-61
2020/12/13 07:04:26;;;;;;;8.80;2.50;;;6.50;99.90;;;;;;5098384;28;20112;-61
2020/12/13 07:06:59;;;;;;;7.97;2.07;;;6.40;99.90;;;;;;5117406;28;20098;-61
2020/12/13 07:09:26;;;;;;;4.53;2.17;;;6.50;99.90;;;;;;5116870;28;20032;-61
2020/12/13 07:11:53;;;;;;;6.90;1.97;;;6.50;99.90;;;;;;5116678;28;20028;-61
2020/12/13 07:14:23;;;;;;;7.83;3.23;;;6.50;99.90;;;;;;5098554;28;20020;-61
2020/12/13 07:19:29;;;;;;;5.00;2.10;;;6.50;99.90;;;;;;5115959;28;20030;-61
2020/12/13 07:22:01;;;;;;;10.27;3.40;;;6.50;99.90;;;;;;5096768;28;20414;-61
2020/12/13 07:24:27;;;;;;;3.53;1.87;;;6.60;99.90;;;;;;5095985;28;20047;-62
2020/12/13 07:26:54;;;;;;;6.20;2.83;;;6.60;99.90;;;;;;5096128;28;20504;-62
2020/12/13 07:29:20;;;;;;;6.53;2.17;;;6.60;99.90;;;;;;5078235;28;20118;-62
2020/12/13 07:31:46;;;;;;;5.77;2.60;;;6.70;99.90;;;;;;5095630;28;20112;-63
2020/12/13 07:34:13;;;;;;;5.33;2.27;;;6.70;99.90;;;;;;5096225;28;20393;-63
2020/12/13 07:36:39;;;;;;;5.67;1.93;;;6.70;99.90;;;;;;5095785;28;20055;-63
2020/12/13 07:39:07;;;;;;;5.90;1.50;;;6.70;99.90;;;;;;5095939;28;20028;-63
2020/12/13 07:41:33;;;;;;;5.30;1.53;;;6.70;99.90;;;;;;5095991;28;20063;-63
2020/12/13 07:44:03;;;;;;;6.83;2.40;;;6.80;99.90;;;;;;5096098;28;20413;-63
2020/12/13 07:46:30;;;;;;;9.37;2.23;;;6.80;99.90;;;;;;5096245;28;20028;-63
2020/12/13 07:49:16;;;;;;;2.77;1.50;;;6.90;99.90;;;;;;5105531;28;20032;-63
2020/12/13 07:51:44;;;;;;;6.60;2.17;;;7.00;99.90;;;;;;5120142;28;20020;-63
2020/12/13 07:54:21;;;;;;;6.50;2.10;;;7.00;99.90;;;;;;5120969;28;20076;-63
2020/12/13 07:56:49;;;;;;;3.33;1.30;;;7.10;99.90;;;;;;5120479;28;20402;-63
2020/12/13 07:59:20;;;;;;;3.97;1.13;;;7.20;99.90;;;;;;5120066;28;20020;-63
2020/12/13 08:01:47;;;;;;;2.70;0.90;;;7.30;99.90;;;;;;5102463;28;20081;-64
2020/12/13 08:04:14;;;;;;;6.17;1.50;;;7.40;99.90;;;;;;5119787;28;20027;-64
2020/12/13 08:06:40;;;;;;;3.80;1.10;;;7.50;99.90;;;;;;5102292;28;20031;-64
2020/12/13 08:09:07;;;;;;;3.00;1.43;;;7.60;99.90;;;;;;5119710;28;20091;-64
2020/12/13 08:11:33;;;;;;;2.43;1.40;;;7.60;99.90;;;;;;5101612;28;20038;-64
2020/12/13 08:13:59;;;;;;;2.53;0.87;;;7.70;99.90;;;;;;5119845;28;20047;-64
2020/12/13 08:16:25;;;;;;;3.07;0.87;;;7.80;99.90;;;;;;5120413;28;20104;-64
2020/12/13 08:18:55;;;;;;;1.93;0.70;;;7.80;99.90;;;;;;5119451;28;20024;-64
2020/12/13 08:21:32;;;;;;;2.23;0.40;;;7.80;99.90;;;;;;5120240;28;20047;-65
2020/12/13 08:24:02;;;;;;;1.50;0.60;;;7.80;99.90;;;;;;5100959;28;20083;-65
2020/12/13 08:26:28;;;;;;;2.77;0.47;;;7.90;99.90;;;;;;5105639;28;20077;-65
2020/12/13 08:28:55;;;;;;;5.23;0.90;;;7.90;99.90;;;;;;5120273;28;20038;-65
2020/12/13 08:31:25;;;;;;;3.43;1.10;;;7.90;99.90;;;;;;5119391;28;20016;-65
2020/12/13 08:34:01;;;;;;;3.97;1.37;;;7.90;99.90;;;;;;5120037;28;20368;-65
2020/12/13 08:36:27;;;;;;;4.90;1.00;;;7.90;99.90;;;;;;5119476;28;20027;-65
2020/12/13 08:38:59;;;;;;;2.43;0.57;;;7.90;99.90;;;;;;5120376;28;20024;-65
2020/12/13 08:41:25;;;;;;;1.57;0.60;;;8.00;99.90;;;;;;5119538;28;20268;-65
2020/12/13 08:43:51;;;;;;;2.87;0.50;;;8.00;99.90;;;;;;5119603;28;20034;-65
2020/12/13 08:46:32;;;;;;;1.17;0.70;;;8.00;99.90;;;;;;5119143;28;20063;-65
2020/12/13 08:48:58;;;;;;;1.60;0.40;;;8.00;99.90;;;;;;5119845;28;20030;-65
2020/12/13 08:51:27;;;;;;;0.87;0.40;;;8.10;99.90;;;;;;5119050;28;20485;-65
2020/12/13 08:54:02;;;;;;;3.33;0.30;;;8.10;99.90;;;;;;5119708;28;20034;-65
2020/12/13 08:56:32;;;;;;;2.07;0.57;;;8.20;99.90;;;;;;5119022;28;20367;-65
2020/12/13 08:58:59;;;;;;;0.47;0.40;;;8.20;99.90;;;;;;5119065;28;20402;-65
2020/12/13 09:01:32;;;;;;;1.03;0.23;;;8.20;99.90;;;;;;5100704;28;20036;-65
2020/12/13 09:03:58;;;;;;;0.85;0.30;;;8.30;99.90;;;;;;5101736;28;20317;-65
2020/12/13 09:06:34;;;;;;;2.47;0.50;;;8.30;99.90;;;;;;5119137;28;20036;-65
2020/12/13 09:09:12;;;;;;;0.87;0.33;;;8.30;99.90;;;;;;5119154;28;20027;-65
2020/12/13 09:11:38;;;;;;;0.47;0.20;;;8.30;99.90;;;;;;5100990;28;20027;-65
2020/12/13 09:14:04;;;;;;;0.80;0.53;;;8.40;99.90;;;;;;5118774;28;20030;-65
2020/12/13 09:16:33;;;;;;;0.70;0.40;;;8.40;99.90;;;;;;5119153;28;20027;-65
2020/12/13 09:19:10;;;;;;;1.63;0.47;;;8.40;99.90;;;;;;5118444;28;20106;-65
2020/12/13 09:21:43;;;;;;;2.53;0.50;;;8.40;99.90;;;;;;5119178;28;20103;-65
2020/12/13 09:24:09;;;;;;;1.90;0.52;;;8.30;99.90;;;;;;5098334;28;20031;-65
2020/12/13 09:26:34;;;;;;;1.83;0.60;;;8.30;99.90;;;;;;5080459;28;20035;-65
2020/12/13 09:29:00;;;;;;;0.90;0.40;;;8.30;99.90;;;;;;5097900;28;20146;-65
2020/12/13 09:31:25;;;;;;;0.43;0.30;;;8.30;99.90;;;;;;5097978;28;20027;-62
2020/12/13 09:33:51;;;;;;;1.00;0.50;;;8.30;99.90;;;;;;5097692;28;20059;-61
2020/12/13 09:36:17;;;;;;;0.77;0.40;;;8.30;99.90;;;;;;5085535;28;20032;-62
2020/12/13 09:38:42;;;;;;;1.00;0.30;;;8.30;99.90;;;;;;5100545;28;20028;-62
2020/12/13 09:41:08;;;;;;;1.20;0.33;;;8.30;99.90;;;;;;5118507;28;20081;-62
2020/12/13 09:43:34;;;;;;;1.57;0.40;;;8.20;99.90;;;;;;5118913;28;20079;-62
2020/12/13 09:45:59;;;;;;;1.50;0.30;;;8.20;99.90;;;;;;5118063;28;20030;-62
2020/12/13 09:48:25;;;;;;;1.43;0.47;;;8.30;99.90;;;;;;5118200;28;20439;-62
2020/12/13 09:50:50;;;;;;;1.90;0.43;;;8.30;99.90;;;;;;5118112;28;20441;-62
2020/12/13 09:53:16;;;;;;;1.17;0.43;;;8.30;99.90;;;;;;5117959;28;20421;-62
2020/12/13 09:55:42;;;;;;;2.13;0.50;;;8.30;99.90;;;;;;5118294;28;20045;-61
2020/12/13 09:58:07;;;;;;;1.57;0.50;;;8.30;99.90;;;;;;5099825;28;20310;-61
2020/12/13 10:00:33;;;;;;;1.20;0.40;;;8.40;99.90;;;;;;5118357;28;20027;-61
2020/12/13 10:02:58;;;;;;;1.33;0.70;;;8.30;99.90;;;;;;5117801;28;20384;-61
2020/12/13 10:05:35;;;;;;;1.07;0.40;;;8.30;99.90;;;;;;5110462;28;20093;-61
2020/12/13 10:10:45;;;;;;;2.30;0.67;;;8.40;99.90;;;;;;5074181;28;20140;-61
2020/12/13 10:13:11;;;;;;;1.10;0.40;;;8.40;99.90;;;;;;5097139;28;20045;-61
2020/12/13 10:15:36;;;;;;;1.50;0.50;;;8.40;99.90;;;;;;5079069;28;20348;-61
2020/12/13 10:18:02;;;;;;;0.97;0.50;;;8.40;99.90;;;;;;5097287;28;20085;-61
2020/12/13 10:20:28;;;;;;;0.90;0.50;;;8.40;99.90;;;;;;5096900;28;20434;-61
2020/12/13 10:22:53;;;;;;;1.13;0.60;;;8.50;99.90;;;;;;5107314;28;20031;-61
2020/12/13 10:25:19;;;;;;;1.30;1.00;;;8.50;99.90;;;;;;5100634;28;20036;-61
2020/12/13 10:27:45;;;;;;;1.00;0.50;;;8.50;99.90;;;;;;5097427;28;20043;-61
2020/12/13 10:30:10;;;;;;;1.30;0.60;;;8.50;99.90;;;;;;5078988;28;20057;-61
2020/12/13 10:32:36;;;;;;;3.30;1.00;;;8.50;99.90;;;;;;5097036;28;20450;-61
2020/12/13 10:35:02;;;;;;;2.10;0.57;;;8.50;99.90;;;;;;5096746;28;20032;-61
2020/12/13 10:37:27;;;;;;;2.10;0.63;;;8.50;99.90;;;;;;5097000;28;20028;-61
2020/12/13 10:39:53;;;;;;;1.27;0.70;;;8.50;99.90;;;;;;5097070;28;20435;-61
2020/12/13 10:42:18;;;;;;;2.20;0.70;;;8.50;99.90;;;;;;5096548;28;20032;-61
2020/12/13 10:44:44;;;;;;;1.67;0.80;;;8.50;99.90;;;;;;5078441;28;20028;-61
2020/12/13 10:47:11;;;;;;;2.17;1.37;;;8.60;99.90;;;;;;5097018;28;20032;-61
2020/12/13 10:49:40;;;;;;;1.73;1.03;;;8.60;99.90;;;;;;5096625;28;20047;-62
2020/12/13 10:52:06;;;;;;;1.77;1.00;;;8.60;99.90;;;;;;5078157;28;20394;-62
2020/12/13 10:54:32;;;;;;;1.07;0.67;;;8.60;99.90;;;;;;5096497;28;20062;-62
2020/12/13 10:56:58;;;;;;;2.40;1.10;;;8.60;99.90;;;;;;5095774;28;20030;-62
2020/12/13 10:59:24;;;;;;;1.13;0.87;;;8.60;99.90;;;;;;5077671;28;20053;-62
2020/12/13 11:01:49;;;;;;;4.00;1.70;;;8.70;99.90;;;;;;5096791;28;20040;-61
2020/12/13 11:04:18;;;;;;;4.20;1.90;;;8.70;99.90;;;;;;5096335;28;20036;-61
2020/12/13 11:06:47;;;;;;;5.23;2.67;;;8.80;99.90;;;;;;5096806;28;20032;-61
2020/12/13 11:09:12;;;;;;;3.00;1.43;;;8.80;99.90;;;;;;5077947;28;20342;-62
2020/12/13 11:11:38;;;;;;;1.87;1.07;;;8.80;99.90;;;;;;5095861;28;20031;-62
2020/12/13 11:14:04;;;;;;;2.17;1.00;;;8.90;99.90;;;;;;5078198;28;20028;-62
2020/12/13 11:16:29;;;;;;;2.40;0.90;;;8.90;99.90;;;;;;5111203;28;20307;-62
2020/12/13 11:18:55;;;;;;;2.07;1.23;;;9.00;99.90;;;;;;5098669;28;20024;-62
2020/12/13 11:21:20;;;;;;;2.83;1.27;;;9.00;99.90;;;;;;5081360;28;20038;-63
2020/12/13 11:23:46;;;;;;;2.67;1.50;;;9.00;99.90;;;;;;5098929;28;20182;-64
2020/12/13 11:26:12;;;;;;;3.47;1.40;;;9.00;99.90;;;;;;5096494;28;20067;-64
2020/12/13 11:28:37;;;;;;;4.87;1.37;;;9.00;99.90;;;;;;5096658;28;20039;-65
2020/12/13 11:31:03;;;;;;;4.23;1.73;;;9.10;99.90;;;;;;5060820;28;20043;-65
2020/12/13 11:33:29;;;;;;;5.13;1.50;;;9.10;99.90;;;;;;5096353;28;20094;-65
2020/12/13 11:35:55;;;;;;;8.40;4.23;;;9.10;99.90;;;;;;5078308;28;20442;-65
2020/12/13 11:38:21;;;;;;;4.23;2.20;;;9.20;99.90;;;;;;5078162;28;20028;-65
2020/12/13 11:40:47;;;;;;;4.40;2.40;;;9.20;99.90;;;;;;5096512;28;20020;-63
2020/12/13 11:43:12;;;;;;;4.90;2.90;;;9.20;99.90;;;;;;5096415;28;20036;-63
2020/12/13 11:45:38;;;;;;;10.07;4.73;;;9.30;99.90;;;;;;5095489;28;20088;-64
2020/12/13 11:48:03;;;;;;;11.20;5.40;;;9.30;99.90;;;;;;5101491;28;20024;-63
2020/12/13 11:50:29;;;;;;;12.80;5.00;;;9.40;99.90;;;;;;5116313;28;20437;-65
2020/12/13 11:52:55;;;;;;;7.23;4.63;;;9.50;99.90;;;;;;5098087;28;20496;-67
2020/12/13 11:55:20;;;;;;;8.27;3.50;;;9.50;99.90;;;;;;5116199;28;20016;-67
2020/12/13 11:57:47;;;;;;;9.80;3.20;;;9.60;99.90;;;;;;5115609;28;20114;-67
2020/12/13 12:00:12;;;;;;;9.17;3.70;;;9.70;99.90;;;;;;5115863;28;20087;-67
2020/12/13 12:02:40;;;;;;;6.23;3.13;;;9.90;99.90;;;;;;5097586;28;20437;-67
2020/12/13 12:05:06;;;;;;;6.30;2.37;;;10.00;99.90;;;;;;5115915;28;20032;-67
2020/12/13 12:07:31;;;;;;;4.67;2.27;;;10.10;99.90;;;;;;5115477;28;20038;-67
2020/12/13 12:09:57;;;;;;;12.20;2.87;;;10.10;99.90;;;;;;5116238;28;20032;-67
2020/12/13 12:12:22;;;;;;;5.67;2.13;;;10.20;99.90;;;;;;5115750;28;20023;-67
2020/12/13 12:14:48;;;;;;;5.97;2.00;;;10.20;99.90;;;;;;5079199;28;20024;-67
2020/12/13 12:17:14;;;;;;;5.03;2.30;;;10.30;99.90;;;;;;5095638;28;20082;-70
2020/12/13 12:19:39;;;;;;;5.03;1.47;;;10.30;99.90;;;;;;5095014;28;20422;-69
2020/12/13 12:22:05;;;;;;;2.83;1.50;;;10.40;99.90;;;;;;5098547;28;20027;-69
2020/12/13 12:24:31;;;;;;;2.77;1.07;;;10.50;99.90;;;;;;5081616;28;20035;-69
2020/12/13 12:26:57;;;;;;;6.90;2.30;;;10.60;99.90;;;;;;5095279;28;20350;-69
2020/12/13 12:29:22;;;;;;;4.83;1.47;;;10.70;99.90;;;;;;5077248;28;20097;-69
2020/12/13 12:31:49;;;;;;;3.73;0.97;;;10.80;99.90;;;;;;5083425;28;20027;-69
2020/12/13 12:34:15;;;;;;;3.37;1.53;;;10.90;99.90;;;;;;5116288;28;20456;-69
2020/12/13 12:36:41;;;;;;;4.20;1.93;;;10.90;99.90;;;;;;5119299;28;20020;-69
2020/12/13 12:39:07;;;;;;;2.93;1.07;;;11.00;99.90;;;;;;5101940;28;20016;-70
2020/12/13 12:41:33;;;;;;;3.70;1.70;;;11.10;99.90;;;;;;5119493;28;20035;-70
2020/12/13 12:43:59;;;;;;;7.93;3.07;;;11.20;99.90;;;;;;5101427;28;20030;-70
2020/12/13 12:46:24;;;;;;;7.73;3.43;;;11.10;99.90;;;;;;5119433;28;20027;-71
2020/12/13 12:48:50;;;;;;;7.23;1.50;;;11.20;99.90;;;;;;5119102;28;20031;-70
2020/12/13 12:51:17;;;;;;;4.93;1.37;;;11.20;99.90;;;;;;5101627;28;20024;-70
2020/12/13 12:53:44;;;;;;;3.57;1.13;;;11.30;99.90;;;;;;5101208;28;20104;-70
2020/12/13 12:56:10;;;;;;;1.67;1.10;;;11.30;99.90;;;;;;5119458;28;20376;-69
2020/12/13 13:01:25;;;;;;;6.27;1.30;;;11.40;99.90;;;;;;5118999;28;20031;-70